Aeroporto :
LOGIN :

Iscrizione | Disclaimer

   EN    FR    IT 

 










Sommario :    VFR   VFR Marginale   IFR   IFR Intensivo   IFR Molto Intensivo
Visibilità : 
Base nubi : 
>= 8 km
>= 3000ft
5 / 8 km
1000 / 3000 ft
1500m / 5 km
500 / 1000 ft
800 / 1500m
200 / 500 ft
< 800m
< 200 ft
Simboli :   Temporali  Nebbia  Neve Forte  Precipitazioni Forti  Vento > 20 kt
SIGMETs :   Varie  Temporali  Ghiacco  Turbolenza  Onda orograficha  Ceneri Vulcaniche






- Altitudine del aeroporto : 423 ft
- Codice IATA : PIS


LFBI - Poitiers

ULTIMO METAR :
  • 231830Z AUTO 24003KT 9999 ///CB 16/13 Q1018 TEMPO SHRA

METARs OBSOLETI :
  • 231800Z AUTO 24005KT CAVOK 16/13 Q1017 TEMPO TSRA BKN025CB
  • 231730Z AUTO 27006KT 9999 ///TCU 16/11 Q1017 TEMPO TSRA BKN025CB
  • 231700Z AUTO 27005KT 9999 FEW033/// BKN088/// OVC100/// //////CB 16/12 Q1017 TEMPO 3000 SHRA
  • 231630Z AUTO 27008KT 250V310 9999 ///TCU 16/11 Q1017 TEMPO 3000 SHRA BKN018CB
  • 231600Z AUTO 27007KT 240V300 9999 FEW025/// BKN130/// ///TCU 17/12 Q1017 TEMPO 3000 SHRA BKN018CB
  • 231530Z AUTO 26010KT 9999 FEW026/// SCT094/// ///CB 17/11 Q1017 TEMPO 3000 SHRA
  • 231500Z AUTO 24007KT 190V300 9999 FEW022/// //////CB 19/14 Q1017 TEMPO 3000 SHRA
  • 231430Z AUTO VRB02KT 9999 FEW027/// SCT054/// BKN070/// ///CB 16/13 Q1017 TEMPO 3000 SHRA
  • 231400Z AUTO 26007KT 230V310 9999 RA FEW040/// BKN070/// OVC080/// //////CB 15/13 Q1018 TEMPO 3000 SHRA

TAF TAF LFBI
Valido dal 23 a 18 ore il 24 a 18 ore UTC


231700Z 2318/2418 27008KT 9999 SCT025
TEMPO 2318/2321 SHRA BKN025CB
PROB40
TEMPO 2318/2320 TSRA
TEMPO 2321/2418 SHRA BKN025TCU



MetMap, La meteo Aeronautica in un colpo d'occhio ! - Copyright ORBIFLY Dicembre 2007 - Disclaimer

ORBIFLY MET'MAP TEAM :

Programmazione e sviluppo : Alexandra Zaïnal
Concezione : Baudouin d'Aumeries
Supporto tecnico e logistico : Manuel Goepfert
Aiuto : Marc-Olivier Méhu
Aiuto per la traduzione : Arnaldo La Scala




FONTI E CREDITI :

   NOAA